sensor_id;sensor_type;location;lat;lon;timestamp;P1;durP1;ratioP1;P2;durP2;ratioP2
52858;SDS011;38721;53.098;6.596;2023-06-22T00:02:02;24.02;;;18.35;;
52858;SDS011;38721;53.098;6.596;2023-06-22T00:04:30;28.88;;;20.98;;
52858;SDS011;38721;53.098;6.596;2023-06-22T00:07:00;24.45;;;18.70;;
52858;SDS011;38721;53.098;6.596;2023-06-22T00:09:25;13.18;;;10.82;;
52858;SDS011;38721;53.098;6.596;2023-06-22T00:11:51;9.57;;;8.45;;
52858;SDS011;38721;53.098;6.596;2023-06-22T00:14:17;17.50;;;13.10;;
52858;SDS011;38721;53.098;6.596;2023-06-22T00:16:45;8.00;;;7.20;;
52858;SDS011;38721;53.098;6.596;2023-06-22T00:19:13;11.10;;;9.85;;
52858;SDS011;38721;53.098;6.596;2023-06-22T00:21:40;12.65;;;8.48;;
52858;SDS011;38721;53.098;6.596;2023-06-22T00:24:06;30.10;;;12.45;;
52858;SDS011;38721;53.098;6.596;2023-06-22T00:26:31;13.88;;;12.48;;
52858;SDS011;38721;53.098;6.596;2023-06-22T00:28:57;10.13;;;9.13;;
52858;SDS011;38721;53.098;6.596;2023-06-22T00:31:25;13.40;;;12.00;;
52858;SDS011;38721;53.098;6.596;2023-06-22T00:33:51;14.05;;;12.07;;
52858;SDS011;38721;53.098;6.596;2023-06-22T00:36:16;14.95;;;10.27;;
52858;SDS011;38721;53.098;6.596;2023-06-22T00:38:43;13.27;;;11.52;;
52858;SDS011;38721;53.098;6.596;2023-06-22T00:41:08;23.02;;;15.88;;
52858;SDS011;38721;53.098;6.596;2023-06-22T00:43:34;19.55;;;11.15;;
52858;SDS011;38721;53.098;6.596;2023-06-22T00:46:00;23.95;;;17.35;;
52858;SDS011;38721;53.098;6.596;2023-06-22T00:48:28;16.42;;;13.20;;
52858;SDS011;38721;53.098;6.596;2023-06-22T00:50:54;12.43;;;11.13;;
52858;SDS011;38721;53.098;6.596;2023-06-22T00:53:21;97.78;;;13.50;;
52858;SDS011;38721;53.098;6.596;2023-06-22T00:55:46;7.43;;;6.20;;
52858;SDS011;38721;53.098;6.596;2023-06-22T00:58:16;7.85;;;6.95;;
52858;SDS011;38721;53.098;6.596;2023-06-22T01:00:46;13.70;;;7.43;;
52858;SDS011;38721;53.098;6.596;2023-06-22T01:03:12;19.00;;;9.68;;
52858;SDS011;38721;53.098;6.596;2023-06-22T01:05:38;15.20;;;9.95;;
52858;SDS011;38721;53.098;6.596;2023-06-22T01:10:51;20.52;;;8.18;;
52858;SDS011;38721;53.098;6.596;2023-06-22T01:16:31;57.58;;;15.85;;
52858;SDS011;38721;53.098;6.596;2023-06-22T01:19:01;19.20;;;15.63;;
52858;SDS011;38721;53.098;6.596;2023-06-22T01:21:51;16.65;;;14.90;;
52858;SDS011;38721;53.098;6.596;2023-06-22T01:24:22;32.42;;;18.27;;
52858;SDS011;38721;53.098;6.596;2023-06-22T01:29:36;23.98;;;15.07;;
52858;SDS011;38721;53.098;6.596;2023-06-22T01:32:04;304.92;;;19.92;;
52858;SDS011;38721;53.098;6.596;2023-06-22T01:34:31;219.25;;;18.50;;
52858;SDS011;38721;53.098;6.596;2023-06-22T01:36:58;12.63;;;10.68;;
52858;SDS011;38721;53.098;6.596;2023-06-22T01:39:26;13.27;;;12.07;;
52858;SDS011;38721;53.098;6.596;2023-06-22T01:41:52;19.17;;;13.98;;
52858;SDS011;38721;53.098;6.596;2023-06-22T01:44:19;26.27;;;13.43;;
52858;SDS011;38721;53.098;6.596;2023-06-22T01:46:46;36.42;;;12.63;;
52858;SDS011;38721;53.098;6.596;2023-06-22T01:49:14;307.73;;;25.33;;
52858;SDS011;38721;53.098;6.596;2023-06-22T01:51:40;83.28;;;14.35;;
52858;SDS011;38721;53.098;6.596;2023-06-22T01:54:06;28.08;;;15.02;;
52858;SDS011;38721;53.098;6.596;2023-06-22T01:56:33;32.75;;;12.25;;
52858;SDS011;38721;53.098;6.596;2023-06-22T01:59:10;12.23;;;11.02;;
52858;SDS011;38721;53.098;6.596;2023-06-22T02:02:07;105.35;;;12.35;;
52858;SDS011;38721;53.098;6.596;2023-06-22T02:04:47;75.80;;;12.10;;
52858;SDS011;38721;53.098;6.596;2023-06-22T02:07:17;42.22;;;13.13;;
52858;SDS011;38721;53.098;6.596;2023-06-22T02:09:44;322.15;;;24.80;;
52858;SDS011;38721;53.098;6.596;2023-06-22T02:12:16;106.95;;;16.33;;
52858;SDS011;38721;53.098;6.596;2023-06-22T02:14:50;14.98;;;12.95;;
52858;SDS011;38721;53.098;6.596;2023-06-22T02:17:17;37.08;;;19.17;;
52858;SDS011;38721;53.098;6.596;2023-06-22T02:19:43;18.75;;;16.75;;
52858;SDS011;38721;53.098;6.596;2023-06-22T02:24:50;256.50;;;22.52;;
52858;SDS011;38721;53.098;6.596;2023-06-22T02:27:15;16.35;;;14.52;;
52858;SDS011;38721;53.098;6.596;2023-06-22T02:29:44;22.88;;;18.80;;
52858;SDS011;38721;53.098;6.596;2023-06-22T02:32:10;27.52;;;21.17;;
52858;SDS011;38721;53.098;6.596;2023-06-22T02:34:42;29.77;;;23.17;;
52858;SDS011;38721;53.098;6.596;2023-06-22T02:37:12;22.92;;;19.38;;
52858;SDS011;38721;53.098;6.596;2023-06-22T02:39:40;21.02;;;16.38;;
52858;SDS011;38721;53.098;6.596;2023-06-22T02:42:06;14.15;;;12.75;;
52858;SDS011;38721;53.098;6.596;2023-06-22T02:44:31;15.40;;;13.30;;
52858;SDS011;38721;53.098;6.596;2023-06-22T02:47:00;19.90;;;15.15;;
52858;SDS011;38721;53.098;6.596;2023-06-22T02:49:25;21.98;;;16.27;;
52858;SDS011;38721;53.098;6.596;2023-06-22T02:51:51;18.98;;;15.25;;
52858;SDS011;38721;53.098;6.596;2023-06-22T02:54:16;18.83;;;15.23;;
52858;SDS011;38721;53.098;6.596;2023-06-22T02:56:45;15.50;;;13.90;;
52858;SDS011;38721;53.098;6.596;2023-06-22T02:59:11;33.83;;;15.45;;
52858;SDS011;38721;53.098;6.596;2023-06-22T03:01:37;147.80;;;22.13;;
52858;SDS011;38721;53.098;6.596;2023-06-22T03:04:05;90.78;;;24.58;;
52858;SDS011;38721;53.098;6.596;2023-06-22T03:06:32;23.92;;;19.20;;
52858;SDS011;38721;53.098;6.596;2023-06-22T03:09:02;63.55;;;19.20;;
52858;SDS011;38721;53.098;6.596;2023-06-22T03:11:33;45.28;;;19.67;;
52858;SDS011;38721;53.098;6.596;2023-06-22T03:13:59;189.65;;;26.00;;
52858;SDS011;38721;53.098;6.596;2023-06-22T03:16:26;83.22;;;21.92;;
52858;SDS011;38721;53.098;6.596;2023-06-22T03:18:55;390.55;;;31.00;;
52858;SDS011;38721;53.098;6.596;2023-06-22T03:21:22;225.63;;;25.70;;
52858;SDS011;38721;53.098;6.596;2023-06-22T03:23:48;181.48;;;23.60;;
52858;SDS011;38721;53.098;6.596;2023-06-22T03:26:16;28.85;;;18.63;;
52858;SDS011;38721;53.098;6.596;2023-06-22T03:28:43;24.50;;;20.17;;
52858;SDS011;38721;53.098;6.596;2023-06-22T03:31:08;22.60;;;18.50;;
52858;SDS011;38721;53.098;6.596;2023-06-22T03:33:34;180.27;;;19.13;;
52858;SDS011;38721;53.098;6.596;2023-06-22T03:36:00;41.70;;;16.50;;
52858;SDS011;38721;53.098;6.596;2023-06-22T03:38:26;26.10;;;16.35;;
52858;SDS011;38721;53.098;6.596;2023-06-22T03:40:51;20.85;;;14.55;;
52858;SDS011;38721;53.098;6.596;2023-06-22T03:43:17;18.35;;;15.85;;
52858;SDS011;38721;53.098;6.596;2023-06-22T03:45:43;17.42;;;15.63;;
52858;SDS011;38721;53.098;6.596;2023-06-22T03:48:10;18.02;;;16.15;;
52858;SDS011;38721;53.098;6.596;2023-06-22T03:50:36;20.42;;;16.77;;
52858;SDS011;38721;53.098;6.596;2023-06-22T03:53:02;73.78;;;16.42;;
52858;SDS011;38721;53.098;6.596;2023-06-22T03:55:27;59.33;;;16.85;;
52858;SDS011;38721;53.098;6.596;2023-06-22T03:57:53;32.58;;;17.08;;
52858;SDS011;38721;53.098;6.596;2023-06-22T04:00:22;20.90;;;16.77;;
52858;SDS011;38721;53.098;6.596;2023-06-22T04:02:50;19.45;;;16.70;;
52858;SDS011;38721;53.098;6.596;2023-06-22T04:05:16;19.25;;;16.98;;
52858;SDS011;38721;53.098;6.596;2023-06-22T04:07:44;17.23;;;15.45;;
52858;SDS011;38721;53.098;6.596;2023-06-22T04:10:10;41.10;;;18.25;;
52858;SDS011;38721;53.098;6.596;2023-06-22T04:12:36;22.42;;;18.88;;
52858;SDS011;38721;53.098;6.596;2023-06-22T04:15:01;23.83;;;18.85;;
52858;SDS011;38721;53.098;6.596;2023-06-22T04:17:27;19.05;;;17.08;;
52858;SDS011;38721;53.098;6.596;2023-06-22T04:19:53;19.13;;;17.08;;
52858;SDS011;38721;53.098;6.596;2023-06-22T04:22:18;19.85;;;17.73;;
52858;SDS011;38721;53.098;6.596;2023-06-22T04:24:44;18.42;;;16.55;;
52858;SDS011;38721;53.098;6.596;2023-06-22T04:27:10;19.40;;;17.35;;
52858;SDS011;38721;53.098;6.596;2023-06-22T04:29:36;20.50;;;18.40;;
52858;SDS011;38721;53.098;6.596;2023-06-22T04:32:03;19.08;;;17.17;;
52858;SDS011;38721;53.098;6.596;2023-06-22T04:34:30;16.83;;;15.20;;
52858;SDS011;38721;53.098;6.596;2023-06-22T04:36:56;25.27;;;22.52;;
52858;SDS011;38721;53.098;6.596;2023-06-22T04:39:22;26.83;;;23.90;;
52858;SDS011;38721;53.098;6.596;2023-06-22T04:41:49;29.67;;;26.48;;
52858;SDS011;38721;53.098;6.596;2023-06-22T04:44:17;34.97;;;29.38;;
52858;SDS011;38721;53.098;6.596;2023-06-22T04:46:49;33.10;;;28.08;;
52858;SDS011;38721;53.098;6.596;2023-06-22T04:49:20;31.92;;;27.65;;
52858;SDS011;38721;53.098;6.596;2023-06-22T04:51:47;35.47;;;30.35;;
52858;SDS011;38721;53.098;6.596;2023-06-22T04:54:13;38.38;;;31.35;;
52858;SDS011;38721;53.098;6.596;2023-06-22T04:56:38;41.28;;;33.33;;
52858;SDS011;38721;53.098;6.596;2023-06-22T04:59:05;45.28;;;36.00;;
52858;SDS011;38721;53.098;6.596;2023-06-22T05:01:32;44.85;;;34.83;;
52858;SDS011;38721;53.098;6.596;2023-06-22T05:04:00;45.97;;;35.47;;
52858;SDS011;38721;53.098;6.596;2023-06-22T05:06:26;42.40;;;34.00;;
52858;SDS011;38721;53.098;6.596;2023-06-22T05:08:56;44.97;;;35.60;;
52858;SDS011;38721;53.098;6.596;2023-06-22T05:11:25;46.10;;;35.92;;
52858;SDS011;38721;53.098;6.596;2023-06-22T05:13:52;46.95;;;35.90;;
52858;SDS011;38721;53.098;6.596;2023-06-22T05:16:18;47.90;;;36.88;;
52858;SDS011;38721;53.098;6.596;2023-06-22T05:18:52;47.90;;;37.00;;
52858;SDS011;38721;53.098;6.596;2023-06-22T05:21:22;46.30;;;37.75;;
52858;SDS011;38721;53.098;6.596;2023-06-22T05:23:49;49.13;;;38.38;;
52858;SDS011;38721;53.098;6.596;2023-06-22T05:26:15;48.75;;;38.35;;
52858;SDS011;38721;53.098;6.596;2023-06-22T05:28:41;52.45;;;39.17;;
52858;SDS011;38721;53.098;6.596;2023-06-22T05:31:11;47.92;;;38.50;;
52858;SDS011;38721;53.098;6.596;2023-06-22T05:33:40;51.95;;;36.97;;
52858;SDS011;38721;53.098;6.596;2023-06-22T05:36:07;53.03;;;38.17;;
52858;SDS011;38721;53.098;6.596;2023-06-22T05:38:41;52.03;;;38.15;;
52858;SDS011;38721;53.098;6.596;2023-06-22T05:41:07;46.97;;;37.20;;
52858;SDS011;38721;53.098;6.596;2023-06-22T05:43:44;46.65;;;35.90;;
52858;SDS011;38721;53.098;6.596;2023-06-22T05:46:09;45.65;;;36.55;;
52858;SDS011;38721;53.098;6.596;2023-06-22T05:48:35;44.95;;;33.83;;
52858;SDS011;38721;53.098;6.596;2023-06-22T05:51:01;51.67;;;37.85;;
52858;SDS011;38721;53.098;6.596;2023-06-22T05:53:26;47.72;;;36.28;;
52858;SDS011;38721;53.098;6.596;2023-06-22T05:55:52;48.60;;;35.10;;
52858;SDS011;38721;53.098;6.596;2023-06-22T05:58:18;48.30;;;35.40;;
52858;SDS011;38721;53.098;6.596;2023-06-22T06:00:44;48.00;;;34.70;;
52858;SDS011;38721;53.098;6.596;2023-06-22T06:03:10;44.67;;;33.40;;
52858;SDS011;38721;53.098;6.596;2023-06-22T06:05:36;41.83;;;31.50;;
52858;SDS011;38721;53.098;6.596;2023-06-22T06:08:03;41.83;;;30.05;;
52858;SDS011;38721;53.098;6.596;2023-06-22T06:10:30;39.58;;;27.77;;
52858;SDS011;38721;53.098;6.596;2023-06-22T06:12:57;34.05;;;25.95;;
52858;SDS011;38721;53.098;6.596;2023-06-22T06:15:26;28.45;;;23.05;;
52858;SDS011;38721;53.098;6.596;2023-06-22T06:17:52;25.55;;;20.92;;
52858;SDS011;38721;53.098;6.596;2023-06-22T06:20:19;26.65;;;19.88;;
52858;SDS011;38721;53.098;6.596;2023-06-22T06:22:46;23.42;;;19.42;;
52858;SDS011;38721;53.098;6.596;2023-06-22T06:25:12;20.13;;;17.75;;
52858;SDS011;38721;53.098;6.596;2023-06-22T06:27:44;23.77;;;18.80;;
52858;SDS011;38721;53.098;6.596;2023-06-22T06:30:11;22.08;;;18.20;;
52858;SDS011;38721;53.098;6.596;2023-06-22T06:32:38;21.27;;;16.10;;
52858;SDS011;38721;53.098;6.596;2023-06-22T06:35:08;20.40;;;16.02;;
52858;SDS011;38721;53.098;6.596;2023-06-22T06:37:44;18.40;;;16.08;;
52858;SDS011;38721;53.098;6.596;2023-06-22T06:40:12;20.15;;;15.40;;
52858;SDS011;38721;53.098;6.596;2023-06-22T06:42:39;18.40;;;14.77;;
52858;SDS011;38721;53.098;6.596;2023-06-22T06:45:10;18.58;;;15.15;;
52858;SDS011;38721;53.098;6.596;2023-06-22T06:47:37;18.30;;;14.65;;
52858;SDS011;38721;53.098;6.596;2023-06-22T06:50:04;19.25;;;14.13;;
52858;SDS011;38721;53.098;6.596;2023-06-22T06:52:30;16.15;;;13.57;;
52858;SDS011;38721;53.098;6.596;2023-06-22T06:54:55;16.52;;;13.00;;
52858;SDS011;38721;53.098;6.596;2023-06-22T06:57:21;18.10;;;12.25;;
52858;SDS011;38721;53.098;6.596;2023-06-22T06:59:47;18.08;;;12.00;;
52858;SDS011;38721;53.098;6.596;2023-06-22T07:02:14;14.77;;;11.60;;
52858;SDS011;38721;53.098;6.596;2023-06-22T07:04:40;17.50;;;12.27;;
52858;SDS011;38721;53.098;6.596;2023-06-22T07:07:06;17.25;;;12.77;;
52858;SDS011;38721;53.098;6.596;2023-06-22T07:09:35;17.17;;;11.95;;
52858;SDS011;38721;53.098;6.596;2023-06-22T07:12:00;14.65;;;11.68;;
52858;SDS011;38721;53.098;6.596;2023-06-22T07:14:26;13.63;;;10.18;;
52858;SDS011;38721;53.098;6.596;2023-06-22T07:16:52;14.10;;;10.13;;
52858;SDS011;38721;53.098;6.596;2023-06-22T07:19:23;13.85;;;9.77;;
52858;SDS011;38721;53.098;6.596;2023-06-22T07:21:50;10.27;;;8.48;;
52858;SDS011;38721;53.098;6.596;2023-06-22T07:24:16;10.35;;;8.50;;
52858;SDS011;38721;53.098;6.596;2023-06-22T07:26:41;10.38;;;8.30;;
52858;SDS011;38721;53.098;6.596;2023-06-22T07:29:11;13.52;;;9.02;;
52858;SDS011;38721;53.098;6.596;2023-06-22T07:31:37;11.98;;;9.00;;
52858;SDS011;38721;53.098;6.596;2023-06-22T07:34:05;13.45;;;9.27;;
52858;SDS011;38721;53.098;6.596;2023-06-22T07:36:30;11.38;;;8.70;;
52858;SDS011;38721;53.098;6.596;2023-06-22T07:38:56;13.02;;;8.77;;
52858;SDS011;38721;53.098;6.596;2023-06-22T07:41:22;13.65;;;8.52;;
52858;SDS011;38721;53.098;6.596;2023-06-22T07:43:47;11.15;;;8.60;;
52858;SDS011;38721;53.098;6.596;2023-06-22T07:46:13;10.43;;;8.27;;
52858;SDS011;38721;53.098;6.596;2023-06-22T07:48:39;10.60;;;8.23;;
52858;SDS011;38721;53.098;6.596;2023-06-22T07:51:06;10.48;;;8.52;;
52858;SDS011;38721;53.098;6.596;2023-06-22T07:53:33;12.40;;;8.25;;
52858;SDS011;38721;53.098;6.596;2023-06-22T07:55:58;9.93;;;7.85;;
52858;SDS011;38721;53.098;6.596;2023-06-22T07:58:24;11.65;;;8.90;;
52858;SDS011;38721;53.098;6.596;2023-06-22T08:00:49;8.65;;;7.75;;
52858;SDS011;38721;53.098;6.596;2023-06-22T08:03:15;13.65;;;8.10;;
52858;SDS011;38721;53.098;6.596;2023-06-22T08:05:41;10.50;;;8.48;;
52858;SDS011;38721;53.098;6.596;2023-06-22T08:08:06;10.85;;;8.27;;
52858;SDS011;38721;53.098;6.596;2023-06-22T08:10:32;13.52;;;8.60;;
52858;SDS011;38721;53.098;6.596;2023-06-22T08:12:58;12.65;;;8.25;;
52858;SDS011;38721;53.098;6.596;2023-06-22T08:15:23;10.32;;;7.88;;
52858;SDS011;38721;53.098;6.596;2023-06-22T08:17:51;8.18;;;6.75;;
52858;SDS011;38721;53.098;6.596;2023-06-22T08:20:17;8.73;;;7.38;;
52858;SDS011;38721;53.098;6.596;2023-06-22T08:22:43;8.65;;;7.18;;
52858;SDS011;38721;53.098;6.596;2023-06-22T08:25:09;10.63;;;7.55;;
52858;SDS011;38721;53.098;6.596;2023-06-22T08:27:35;9.27;;;7.45;;
52858;SDS011;38721;53.098;6.596;2023-06-22T08:30:01;8.93;;;7.03;;
52858;SDS011;38721;53.098;6.596;2023-06-22T08:32:27;8.65;;;7.75;;
52858;SDS011;38721;53.098;6.596;2023-06-22T08:34:59;9.65;;;7.32;;
52858;SDS011;38721;53.098;6.596;2023-06-22T08:37:24;10.60;;;7.22;;
52858;SDS011;38721;53.098;6.596;2023-06-22T08:39:59;9.25;;;7.47;;
52858;SDS011;38721;53.098;6.596;2023-06-22T08:42:26;9.02;;;7.18;;
52858;SDS011;38721;53.098;6.596;2023-06-22T08:44:52;7.63;;;6.75;;
52858;SDS011;38721;53.098;6.596;2023-06-22T08:47:18;6.85;;;5.88;;
52858;SDS011;38721;53.098;6.596;2023-06-22T08:49:45;7.13;;;5.50;;
52858;SDS011;38721;53.098;6.596;2023-06-22T08:52:10;7.53;;;5.90;;
52858;SDS011;38721;53.098;6.596;2023-06-22T08:54:38;7.45;;;6.20;;
52858;SDS011;38721;53.098;6.596;2023-06-22T08:57:04;8.57;;;6.18;;
52858;SDS011;38721;53.098;6.596;2023-06-22T08:59:30;8.23;;;5.97;;
52858;SDS011;38721;53.098;6.596;2023-06-22T09:01:56;8.93;;;5.70;;
52858;SDS011;38721;53.098;6.596;2023-06-22T09:04:21;9.55;;;6.28;;
52858;SDS011;38721;53.098;6.596;2023-06-22T09:06:50;9.75;;;6.68;;
52858;SDS011;38721;53.098;6.596;2023-06-22T09:09:17;9.48;;;7.90;;
52858;SDS011;38721;53.098;6.596;2023-06-22T09:11:43;8.80;;;7.20;;
52858;SDS011;38721;53.098;6.596;2023-06-22T09:14:09;8.45;;;6.72;;
52858;SDS011;38721;53.098;6.596;2023-06-22T09:16:35;8.32;;;6.00;;
52858;SDS011;38721;53.098;6.596;2023-06-22T09:19:01;11.07;;;6.00;;
52858;SDS011;38721;53.098;6.596;2023-06-22T09:21:27;8.10;;;6.57;;
52858;SDS011;38721;53.098;6.596;2023-06-22T09:23:52;10.38;;;7.40;;
52858;SDS011;38721;53.098;6.596;2023-06-22T09:26:18;10.68;;;7.53;;
52858;SDS011;38721;53.098;6.596;2023-06-22T09:28:48;10.32;;;6.57;;
52858;SDS011;38721;53.098;6.596;2023-06-22T09:31:14;10.98;;;7.20;;
52858;SDS011;38721;53.098;6.596;2023-06-22T09:33:41;9.10;;;7.10;;
52858;SDS011;38721;53.098;6.596;2023-06-22T09:36:07;11.43;;;8.32;;
52858;SDS011;38721;53.098;6.596;2023-06-22T09:38:36;12.57;;;8.07;;
52858;SDS011;38721;53.098;6.596;2023-06-22T09:41:02;12.23;;;6.25;;
52858;SDS011;38721;53.098;6.596;2023-06-22T09:43:29;8.90;;;6.75;;
52858;SDS011;38721;53.098;6.596;2023-06-22T09:45:56;11.85;;;7.07;;
52858;SDS011;38721;53.098;6.596;2023-06-22T09:48:21;10.45;;;7.65;;
52858;SDS011;38721;53.098;6.596;2023-06-22T09:50:47;9.43;;;6.68;;
52858;SDS011;38721;53.098;6.596;2023-06-22T09:53:13;9.55;;;6.97;;
52858;SDS011;38721;53.098;6.596;2023-06-22T09:55:38;8.73;;;5.93;;
52858;SDS011;38721;53.098;6.596;2023-06-22T09:58:04;9.18;;;6.68;;
52858;SDS011;38721;53.098;6.596;2023-06-22T10:00:30;9.25;;;6.53;;
52858;SDS011;38721;53.098;6.596;2023-06-22T10:02:55;7.10;;;5.95;;
52858;SDS011;38721;53.098;6.596;2023-06-22T10:05:22;9.30;;;6.53;;
52858;SDS011;38721;53.098;6.596;2023-06-22T10:07:48;6.38;;;5.32;;
52858;SDS011;38721;53.098;6.596;2023-06-22T10:10:14;7.40;;;5.55;;
52858;SDS011;38721;53.098;6.596;2023-06-22T10:12:47;8.05;;;5.20;;
52858;SDS011;38721;53.098;6.596;2023-06-22T10:15:20;7.85;;;5.50;;
52858;SDS011;38721;53.098;6.596;2023-06-22T10:17:49;7.30;;;5.55;;
52858;SDS011;38721;53.098;6.596;2023-06-22T10:20:14;8.32;;;6.47;;
52858;SDS011;38721;53.098;6.596;2023-06-22T10:22:44;9.63;;;5.50;;
52858;SDS011;38721;53.098;6.596;2023-06-22T10:25:11;7.32;;;5.28;;
52858;SDS011;38721;53.098;6.596;2023-06-22T10:27:37;6.55;;;5.00;;
52858;SDS011;38721;53.098;6.596;2023-06-22T10:30:09;8.00;;;6.00;;
52858;SDS011;38721;53.098;6.596;2023-06-22T10:32:39;9.23;;;6.72;;
52858;SDS011;38721;53.098;6.596;2023-06-22T10:35:06;9.52;;;7.10;;
52858;SDS011;38721;53.098;6.596;2023-06-22T10:37:32;8.68;;;5.43;;
52858;SDS011;38721;53.098;6.596;2023-06-22T10:39:58;10.68;;;5.95;;
52858;SDS011;38721;53.098;6.596;2023-06-22T10:42:24;10.18;;;5.95;;
52858;SDS011;38721;53.098;6.596;2023-06-22T10:44:50;7.63;;;5.20;;
52858;SDS011;38721;53.098;6.596;2023-06-22T10:47:15;6.95;;;5.18;;
52858;SDS011;38721;53.098;6.596;2023-06-22T10:49:41;9.05;;;5.50;;
52858;SDS011;38721;53.098;6.596;2023-06-22T10:52:07;7.22;;;5.25;;
52858;SDS011;38721;53.098;6.596;2023-06-22T10:54:33;7.57;;;5.32;;
52858;SDS011;38721;53.098;6.596;2023-06-22T10:57:00;6.63;;;4.80;;
52858;SDS011;38721;53.098;6.596;2023-06-22T10:59:26;8.07;;;5.70;;
52858;SDS011;38721;53.098;6.596;2023-06-22T11:01:53;8.73;;;6.05;;
52858;SDS011;38721;53.098;6.596;2023-06-22T11:04:20;7.68;;;5.90;;
52858;SDS011;38721;53.098;6.596;2023-06-22T11:06:45;9.13;;;6.55;;
52858;SDS011;38721;53.098;6.596;2023-06-22T11:09:15;7.88;;;6.47;;
52858;SDS011;38721;53.098;6.596;2023-06-22T11:11:49;8.88;;;5.63;;
52858;SDS011;38721;53.098;6.596;2023-06-22T11:14:16;7.38;;;5.88;;
52858;SDS011;38721;53.098;6.596;2023-06-22T11:16:41;9.73;;;6.20;;
52858;SDS011;38721;53.098;6.596;2023-06-22T11:19:07;8.48;;;5.90;;
52858;SDS011;38721;53.098;6.596;2023-06-22T11:21:33;8.77;;;5.95;;
52858;SDS011;38721;53.098;6.596;2023-06-22T11:23:59;7.32;;;5.93;;
52858;SDS011;38721;53.098;6.596;2023-06-22T11:26:30;7.28;;;5.65;;
52858;SDS011;38721;53.098;6.596;2023-06-22T11:28:57;8.57;;;6.03;;
52858;SDS011;38721;53.098;6.596;2023-06-22T11:31:23;7.63;;;5.53;;
52858;SDS011;38721;53.098;6.596;2023-06-22T11:33:49;6.88;;;5.72;;
52858;SDS011;38721;53.098;6.596;2023-06-22T11:36:14;6.90;;;5.53;;
52858;SDS011;38721;53.098;6.596;2023-06-22T11:38:40;5.90;;;4.50;;
52858;SDS011;38721;53.098;6.596;2023-06-22T11:41:07;10.20;;;5.07;;
52858;SDS011;38721;53.098;6.596;2023-06-22T11:43:36;6.32;;;5.22;;
52858;SDS011;38721;53.098;6.596;2023-06-22T11:46:02;6.13;;;5.18;;
52858;SDS011;38721;53.098;6.596;2023-06-22T11:48:30;6.85;;;5.53;;
52858;SDS011;38721;53.098;6.596;2023-06-22T11:50:56;9.40;;;5.43;;
52858;SDS011;38721;53.098;6.596;2023-06-22T11:53:24;8.25;;;5.53;;
52858;SDS011;38721;53.098;6.596;2023-06-22T11:55:51;9.02;;;5.88;;
52858;SDS011;38721;53.098;6.596;2023-06-22T11:58:21;7.57;;;5.60;;
52858;SDS011;38721;53.098;6.596;2023-06-22T12:00:47;7.43;;;6.28;;
52858;SDS011;38721;53.098;6.596;2023-06-22T12:03:13;7.13;;;6.18;;
52858;SDS011;38721;53.098;6.596;2023-06-22T12:05:39;8.82;;;6.50;;
52858;SDS011;38721;53.098;6.596;2023-06-22T12:08:06;9.60;;;5.47;;
52858;SDS011;38721;53.098;6.596;2023-06-22T12:10:31;8.85;;;6.93;;
52858;SDS011;38721;53.098;6.596;2023-06-22T12:12:57;9.23;;;6.88;;
52858;SDS011;38721;53.098;6.596;2023-06-22T12:15:24;8.15;;;5.97;;
52858;SDS011;38721;53.098;6.596;2023-06-22T12:17:50;6.47;;;4.97;;
52858;SDS011;38721;53.098;6.596;2023-06-22T12:20:16;6.35;;;5.45;;
52858;SDS011;38721;53.098;6.596;2023-06-22T12:22:42;7.93;;;7.07;;
52858;SDS011;38721;53.098;6.596;2023-06-22T12:25:08;7.90;;;7.10;;
52858;SDS011;38721;53.098;6.596;2023-06-22T12:27:37;7.90;;;6.35;;
52858;SDS011;38721;53.098;6.596;2023-06-22T12:30:03;8.30;;;6.10;;
52858;SDS011;38721;53.098;6.596;2023-06-22T12:32:30;8.52;;;6.13;;
52858;SDS011;38721;53.098;6.596;2023-06-22T12:34:55;8.27;;;6.50;;
52858;SDS011;38721;53.098;6.596;2023-06-22T12:37:21;7.40;;;6.35;;
52858;SDS011;38721;53.098;6.596;2023-06-22T12:39:47;8.52;;;6.45;;
52858;SDS011;38721;53.098;6.596;2023-06-22T12:42:13;9.63;;;7.15;;
52858;SDS011;38721;53.098;6.596;2023-06-22T12:44:40;7.72;;;6.18;;
52858;SDS011;38721;53.098;6.596;2023-06-22T12:47:06;7.65;;;6.28;;
52858;SDS011;38721;53.098;6.596;2023-06-22T12:49:33;9.95;;;6.35;;
52858;SDS011;38721;53.098;6.596;2023-06-22T12:52:00;8.18;;;5.78;;
52858;SDS011;38721;53.098;6.596;2023-06-22T12:54:26;9.65;;;6.18;;
52858;SDS011;38721;53.098;6.596;2023-06-22T12:56:51;9.95;;;6.88;;
52858;SDS011;38721;53.098;6.596;2023-06-22T12:59:17;8.07;;;6.32;;
52858;SDS011;38721;53.098;6.596;2023-06-22T13:01:43;7.88;;;6.65;;
52858;SDS011;38721;53.098;6.596;2023-06-22T13:04:10;8.07;;;6.03;;
52858;SDS011;38721;53.098;6.596;2023-06-22T13:06:43;8.57;;;6.60;;
52858;SDS011;38721;53.098;6.596;2023-06-22T13:09:13;10.55;;;8.10;;
52858;SDS011;38721;53.098;6.596;2023-06-22T13:11:42;10.65;;;7.22;;
52858;SDS011;38721;53.098;6.596;2023-06-22T13:14:08;14.80;;;7.07;;
52858;SDS011;38721;53.098;6.596;2023-06-22T13:16:34;10.15;;;6.90;;
52858;SDS011;38721;53.098;6.596;2023-06-22T13:18:59;10.55;;;7.18;;
52858;SDS011;38721;53.098;6.596;2023-06-22T13:21:25;8.85;;;7.38;;
52858;SDS011;38721;53.098;6.596;2023-06-22T13:23:51;9.27;;;6.85;;
52858;SDS011;38721;53.098;6.596;2023-06-22T13:26:17;10.13;;;7.63;;
52858;SDS011;38721;53.098;6.596;2023-06-22T13:28:42;11.20;;;7.70;;
52858;SDS011;38721;53.098;6.596;2023-06-22T13:31:11;8.65;;;7.30;;
52858;SDS011;38721;53.098;6.596;2023-06-22T13:33:37;10.70;;;7.95;;
52858;SDS011;38721;53.098;6.596;2023-06-22T13:36:03;9.20;;;7.43;;
52858;SDS011;38721;53.098;6.596;2023-06-22T13:38:31;10.55;;;7.25;;
52858;SDS011;38721;53.098;6.596;2023-06-22T13:40:57;10.13;;;7.10;;
52858;SDS011;38721;53.098;6.596;2023-06-22T13:43:26;9.48;;;7.65;;
52858;SDS011;38721;53.098;6.596;2023-06-22T13:45:52;9.90;;;8.07;;
52858;SDS011;38721;53.098;6.596;2023-06-22T13:48:17;9.20;;;6.93;;
52858;SDS011;38721;53.098;6.596;2023-06-22T13:50:48;15.93;;;8.35;;
52858;SDS011;38721;53.098;6.596;2023-06-22T13:53:13;11.45;;;8.02;;
52858;SDS011;38721;53.098;6.596;2023-06-22T13:55:39;7.93;;;6.97;;
52858;SDS011;38721;53.098;6.596;2023-06-22T13:58:05;9.50;;;7.20;;
52858;SDS011;38721;53.098;6.596;2023-06-22T14:00:31;7.78;;;6.80;;
52858;SDS011;38721;53.098;6.596;2023-06-22T14:02:57;8.32;;;6.40;;
52858;SDS011;38721;53.098;6.596;2023-06-22T14:05:23;8.07;;;7.03;;
52858;SDS011;38721;53.098;6.596;2023-06-22T14:07:48;9.75;;;6.35;;
52858;SDS011;38721;53.098;6.596;2023-06-22T14:10:14;8.43;;;6.68;;
52858;SDS011;38721;53.098;6.596;2023-06-22T14:12:39;8.23;;;6.55;;
52858;SDS011;38721;53.098;6.596;2023-06-22T14:15:05;9.35;;;6.10;;
52858;SDS011;38721;53.098;6.596;2023-06-22T14:17:31;8.15;;;5.63;;
52858;SDS011;38721;53.098;6.596;2023-06-22T14:19:59;9.05;;;5.63;;
52858;SDS011;38721;53.098;6.596;2023-06-22T14:22:28;6.00;;;5.40;;
52858;SDS011;38721;53.098;6.596;2023-06-22T14:24:54;7.72;;;5.93;;
52858;SDS011;38721;53.098;6.596;2023-06-22T14:27:22;7.40;;;5.30;;
52858;SDS011;38721;53.098;6.596;2023-06-22T14:29:48;6.13;;;5.22;;
52858;SDS011;38721;53.098;6.596;2023-06-22T14:32:13;6.95;;;5.25;;
52858;SDS011;38721;53.098;6.596;2023-06-22T14:34:39;8.85;;;5.43;;
52858;SDS011;38721;53.098;6.596;2023-06-22T14:37:06;7.35;;;5.15;;
52858;SDS011;38721;53.098;6.596;2023-06-22T14:39:32;7.53;;;5.05;;
52858;SDS011;38721;53.098;6.596;2023-06-22T14:41:58;7.50;;;5.43;;
52858;SDS011;38721;53.098;6.596;2023-06-22T14:44:25;6.25;;;4.82;;